sensor_id;sensor_type;location;lat;lon;timestamp;P1;durP1;ratioP1;P2;durP2;ratioP2
12194;SDS011;27023;42.680;23.132;2022-10-16T00:02:02;21.53;;;20.63;;
12194;SDS011;27023;42.680;23.132;2022-10-16T00:04:28;20.67;;;19.83;;
12194;SDS011;27023;42.680;23.132;2022-10-16T00:06:55;18.43;;;17.70;;
12194;SDS011;27023;42.680;23.132;2022-10-16T00:09:22;20.07;;;19.23;;
12194;SDS011;27023;42.680;23.132;2022-10-16T00:11:50;16.77;;;16.07;;
12194;SDS011;27023;42.680;23.132;2022-10-16T00:14:17;15.97;;;15.37;;
12194;SDS011;27023;42.680;23.132;2022-10-16T00:16:43;14.10;;;13.63;;
12194;SDS011;27023;42.680;23.132;2022-10-16T00:19:11;16.87;;;16.23;;
12194;SDS011;27023;42.680;23.132;2022-10-16T00:21:38;22.63;;;21.63;;
12194;SDS011;27023;42.680;23.132;2022-10-16T00:24:05;23.10;;;22.07;;
12194;SDS011;27023;42.680;23.132;2022-10-16T00:26:34;20.83;;;20.03;;
12194;SDS011;27023;42.680;23.132;2022-10-16T00:29:03;14.77;;;14.27;;
12194;SDS011;27023;42.680;23.132;2022-10-16T00:31:31;13.90;;;13.47;;
12194;SDS011;27023;42.680;23.132;2022-10-16T00:33:58;13.53;;;13.13;;
12194;SDS011;27023;42.680;23.132;2022-10-16T00:36:25;12.43;;;12.03;;
12194;SDS011;27023;42.680;23.132;2022-10-16T00:38:52;10.70;;;10.40;;
12194;SDS011;27023;42.680;23.132;2022-10-16T00:41:20;10.33;;;10.10;;
12194;SDS011;27023;42.680;23.132;2022-10-16T00:43:49;13.20;;;12.80;;
12194;SDS011;27023;42.680;23.132;2022-10-16T00:46:19;15.07;;;14.57;;
12194;SDS011;27023;42.680;23.132;2022-10-16T00:48:48;15.73;;;15.17;;
12194;SDS011;27023;42.680;23.132;2022-10-16T00:51:18;16.73;;;16.03;;
12194;SDS011;27023;42.680;23.132;2022-10-16T00:53:48;15.50;;;14.90;;
12194;SDS011;27023;42.680;23.132;2022-10-16T00:56:16;16.70;;;16.00;;
12194;SDS011;27023;42.680;23.132;2022-10-16T00:58:43;16.23;;;15.57;;
12194;SDS011;27023;42.680;23.132;2022-10-16T01:01:10;15.43;;;14.83;;
12194;SDS011;27023;42.680;23.132;2022-10-16T01:03:38;16.17;;;15.50;;
12194;SDS011;27023;42.680;23.132;2022-10-16T01:06:09;15.87;;;15.27;;
12194;SDS011;27023;42.680;23.132;2022-10-16T01:08:48;15.50;;;14.97;;
12194;SDS011;27023;42.680;23.132;2022-10-16T01:11:25;16.47;;;15.77;;
12194;SDS011;27023;42.680;23.132;2022-10-16T01:13:58;16.63;;;15.93;;
12194;SDS011;27023;42.680;23.132;2022-10-16T01:16:31;18.33;;;17.63;;
12194;SDS011;27023;42.680;23.132;2022-10-16T01:19:08;21.67;;;20.77;;
12194;SDS011;27023;42.680;23.132;2022-10-16T01:21:39;21.47;;;20.53;;
12194;SDS011;27023;42.680;23.132;2022-10-16T01:24:13;20.27;;;19.37;;
12194;SDS011;27023;42.680;23.132;2022-10-16T01:27:00;19.30;;;18.43;;
12194;SDS011;27023;42.680;23.132;2022-10-16T01:29:34;18.70;;;18.00;;
12194;SDS011;27023;42.680;23.132;2022-10-16T01:32:07;18.03;;;17.27;;
12194;SDS011;27023;42.680;23.132;2022-10-16T01:34:42;17.40;;;16.67;;
12194;SDS011;27023;42.680;23.132;2022-10-16T01:37:14;22.53;;;21.40;;
12194;SDS011;27023;42.680;23.132;2022-10-16T01:39:45;20.23;;;19.40;;
12194;SDS011;27023;42.680;23.132;2022-10-16T01:42:18;29.13;;;27.80;;
12194;SDS011;27023;42.680;23.132;2022-10-16T01:44:48;29.77;;;28.33;;
12194;SDS011;27023;42.680;23.132;2022-10-16T01:47:17;28.37;;;27.07;;
12194;SDS011;27023;42.680;23.132;2022-10-16T01:49:48;26.67;;;25.47;;
12194;SDS011;27023;42.680;23.132;2022-10-16T01:52:17;25.13;;;24.03;;
12194;SDS011;27023;42.680;23.132;2022-10-16T01:54:47;21.50;;;20.53;;
12194;SDS011;27023;42.680;23.132;2022-10-16T01:57:19;20.53;;;19.67;;
12194;SDS011;27023;42.680;23.132;2022-10-16T01:59:49;18.13;;;17.43;;
12194;SDS011;27023;42.680;23.132;2022-10-16T02:02:20;19.93;;;19.03;;
12194;SDS011;27023;42.680;23.132;2022-10-16T02:04:49;19.93;;;19.00;;
12194;SDS011;27023;42.680;23.132;2022-10-16T02:07:21;19.23;;;18.40;;
12194;SDS011;27023;42.680;23.132;2022-10-16T02:09:48;19.23;;;18.43;;
12194;SDS011;27023;42.680;23.132;2022-10-16T02:12:16;21.03;;;20.07;;
12194;SDS011;27023;42.680;23.132;2022-10-16T02:14:49;23.00;;;21.90;;
12194;SDS011;27023;42.680;23.132;2022-10-16T02:17:17;22.20;;;21.23;;
12194;SDS011;27023;42.680;23.132;2022-10-16T02:19:44;21.50;;;20.50;;
12194;SDS011;27023;42.680;23.132;2022-10-16T02:22:15;24.30;;;23.10;;
12194;SDS011;27023;42.680;23.132;2022-10-16T02:24:49;24.00;;;22.90;;
12194;SDS011;27023;42.680;23.132;2022-10-16T02:27:22;26.53;;;25.27;;
12194;SDS011;27023;42.680;23.132;2022-10-16T02:29:53;24.53;;;23.33;;
12194;SDS011;27023;42.680;23.132;2022-10-16T02:32:27;21.27;;;20.30;;
12194;SDS011;27023;42.680;23.132;2022-10-16T02:34:57;18.97;;;18.23;;
12194;SDS011;27023;42.680;23.132;2022-10-16T02:37:26;16.17;;;15.50;;
12194;SDS011;27023;42.680;23.132;2022-10-16T02:39:54;16.30;;;15.63;;
12194;SDS011;27023;42.680;23.132;2022-10-16T02:42:28;15.40;;;14.80;;
12194;SDS011;27023;42.680;23.132;2022-10-16T02:44:58;14.70;;;14.10;;
12194;SDS011;27023;42.680;23.132;2022-10-16T02:47:25;16.43;;;15.73;;
12194;SDS011;27023;42.680;23.132;2022-10-16T02:49:52;19.13;;;18.10;;
12194;SDS011;27023;42.680;23.132;2022-10-16T02:52:19;16.80;;;16.10;;
12194;SDS011;27023;42.680;23.132;2022-10-16T02:54:45;15.67;;;15.07;;
12194;SDS011;27023;42.680;23.132;2022-10-16T02:57:12;14.13;;;13.63;;
12194;SDS011;27023;42.680;23.132;2022-10-16T02:59:40;15.53;;;14.93;;
12194;SDS011;27023;42.680;23.132;2022-10-16T03:02:07;16.07;;;15.37;;
12194;SDS011;27023;42.680;23.132;2022-10-16T03:04:35;19.27;;;18.40;;
12194;SDS011;27023;42.680;23.132;2022-10-16T03:07:02;16.07;;;15.37;;
12194;SDS011;27023;42.680;23.132;2022-10-16T03:09:29;19.73;;;18.93;;
12194;SDS011;27023;42.680;23.132;2022-10-16T03:11:56;19.33;;;18.50;;
12194;SDS011;27023;42.680;23.132;2022-10-16T03:14:22;18.00;;;17.27;;
12194;SDS011;27023;42.680;23.132;2022-10-16T03:16:50;15.60;;;15.00;;
12194;SDS011;27023;42.680;23.132;2022-10-16T03:19:17;14.53;;;13.97;;
12194;SDS011;27023;42.680;23.132;2022-10-16T03:21:44;16.67;;;16.03;;
12194;SDS011;27023;42.680;23.132;2022-10-16T03:24:11;18.33;;;17.60;;
12194;SDS011;27023;42.680;23.132;2022-10-16T03:26:38;15.13;;;14.63;;
12194;SDS011;27023;42.680;23.132;2022-10-16T03:29:05;16.30;;;15.73;;
12194;SDS011;27023;42.680;23.132;2022-10-16T03:31:31;17.10;;;16.50;;
12194;SDS011;27023;42.680;23.132;2022-10-16T03:34:00;15.13;;;14.60;;
12194;SDS011;27023;42.680;23.132;2022-10-16T03:36:26;17.43;;;16.83;;
12194;SDS011;27023;42.680;23.132;2022-10-16T03:38:53;18.37;;;17.57;;
12194;SDS011;27023;42.680;23.132;2022-10-16T03:41:20;17.43;;;16.70;;
12194;SDS011;27023;42.680;23.132;2022-10-16T03:43:46;16.13;;;15.47;;
12194;SDS011;27023;42.680;23.132;2022-10-16T03:46:13;16.83;;;16.13;;
12194;SDS011;27023;42.680;23.132;2022-10-16T03:48:40;17.93;;;17.03;;
12194;SDS011;27023;42.680;23.132;2022-10-16T03:51:08;15.80;;;15.13;;
12194;SDS011;27023;42.680;23.132;2022-10-16T03:53:35;16.27;;;15.57;;
12194;SDS011;27023;42.680;23.132;2022-10-16T03:56:01;14.83;;;14.23;;
12194;SDS011;27023;42.680;23.132;2022-10-16T03:58:28;14.73;;;14.17;;
12194;SDS011;27023;42.680;23.132;2022-10-16T04:00:55;13.30;;;12.80;;
12194;SDS011;27023;42.680;23.132;2022-10-16T04:03:22;14.40;;;13.80;;
12194;SDS011;27023;42.680;23.132;2022-10-16T04:05:49;13.50;;;12.90;;
12194;SDS011;27023;42.680;23.132;2022-10-16T04:08:17;13.80;;;13.20;;
12194;SDS011;27023;42.680;23.132;2022-10-16T04:10:44;15.33;;;14.73;;
12194;SDS011;27023;42.680;23.132;2022-10-16T04:13:11;14.93;;;14.30;;
12194;SDS011;27023;42.680;23.132;2022-10-16T04:15:38;14.43;;;13.83;;
12194;SDS011;27023;42.680;23.132;2022-10-16T04:18:05;15.07;;;14.43;;
12194;SDS011;27023;42.680;23.132;2022-10-16T04:20:32;16.47;;;15.73;;
12194;SDS011;27023;42.680;23.132;2022-10-16T04:22:59;16.97;;;16.27;;
12194;SDS011;27023;42.680;23.132;2022-10-16T04:25:28;18.40;;;17.53;;
12194;SDS011;27023;42.680;23.132;2022-10-16T04:27:55;15.77;;;15.07;;
12194;SDS011;27023;42.680;23.132;2022-10-16T04:30:22;16.13;;;15.43;;
12194;SDS011;27023;42.680;23.132;2022-10-16T04:32:49;18.80;;;18.00;;
12194;SDS011;27023;42.680;23.132;2022-10-16T04:35:17;21.37;;;20.43;;
12194;SDS011;27023;42.680;23.132;2022-10-16T04:37:44;22.00;;;20.97;;
12194;SDS011;27023;42.680;23.132;2022-10-16T04:40:10;22.83;;;21.77;;
12194;SDS011;27023;42.680;23.132;2022-10-16T04:42:39;23.80;;;22.73;;
12194;SDS011;27023;42.680;23.132;2022-10-16T04:45:06;25.23;;;24.03;;
12194;SDS011;27023;42.680;23.132;2022-10-16T04:47:33;22.50;;;21.50;;
12194;SDS011;27023;42.680;23.132;2022-10-16T04:50:00;17.13;;;16.47;;
12194;SDS011;27023;42.680;23.132;2022-10-16T04:52:27;17.53;;;16.77;;
12194;SDS011;27023;42.680;23.132;2022-10-16T04:54:54;24.87;;;23.80;;
12194;SDS011;27023;42.680;23.132;2022-10-16T04:57:25;24.67;;;23.43;;
12194;SDS011;27023;42.680;23.132;2022-10-16T04:59:53;26.93;;;25.67;;
12194;SDS011;27023;42.680;23.132;2022-10-16T05:02:20;23.17;;;22.03;;
12194;SDS011;27023;42.680;23.132;2022-10-16T05:04:46;19.17;;;18.33;;
12194;SDS011;27023;42.680;23.132;2022-10-16T05:07:13;18.70;;;17.90;;
12194;SDS011;27023;42.680;23.132;2022-10-16T05:09:40;18.83;;;18.10;;
12194;SDS011;27023;42.680;23.132;2022-10-16T05:12:07;16.93;;;16.33;;
12194;SDS011;27023;42.680;23.132;2022-10-16T05:14:33;19.60;;;18.80;;
12194;SDS011;27023;42.680;23.132;2022-10-16T05:17:01;19.83;;;18.93;;
12194;SDS011;27023;42.680;23.132;2022-10-16T05:19:28;18.57;;;17.87;;
12194;SDS011;27023;42.680;23.132;2022-10-16T05:21:55;19.23;;;18.43;;
12194;SDS011;27023;42.680;23.132;2022-10-16T05:24:22;19.07;;;18.27;;
12194;SDS011;27023;42.680;23.132;2022-10-16T05:26:49;17.63;;;16.93;;
12194;SDS011;27023;42.680;23.132;2022-10-16T05:29:16;17.10;;;16.37;;
12194;SDS011;27023;42.680;23.132;2022-10-16T05:31:43;17.73;;;17.03;;
12194;SDS011;27023;42.680;23.132;2022-10-16T05:34:11;16.40;;;15.70;;
12194;SDS011;27023;42.680;23.132;2022-10-16T05:36:38;16.63;;;15.87;;
12194;SDS011;27023;42.680;23.132;2022-10-16T05:39:05;16.37;;;15.60;;
12194;SDS011;27023;42.680;23.132;2022-10-16T05:41:31;16.27;;;15.47;;
12194;SDS011;27023;42.680;23.132;2022-10-16T05:43:58;13.97;;;13.40;;
12194;SDS011;27023;42.680;23.132;2022-10-16T05:46:25;15.87;;;15.17;;
12194;SDS011;27023;42.680;23.132;2022-10-16T05:48:51;15.87;;;15.17;;
12194;SDS011;27023;42.680;23.132;2022-10-16T05:51:20;15.73;;;15.03;;
12194;SDS011;27023;42.680;23.132;2022-10-16T05:53:47;16.27;;;15.47;;
12194;SDS011;27023;42.680;23.132;2022-10-16T05:56:13;16.40;;;15.70;;
12194;SDS011;27023;42.680;23.132;2022-10-16T05:58:41;17.23;;;16.53;;
12194;SDS011;27023;42.680;23.132;2022-10-16T06:01:09;15.93;;;15.23;;
12194;SDS011;27023;42.680;23.132;2022-10-16T06:03:37;16.97;;;16.20;;
12194;SDS011;27023;42.680;23.132;2022-10-16T06:06:07;16.77;;;16.03;;
12194;SDS011;27023;42.680;23.132;2022-10-16T06:08:36;16.97;;;16.27;;
12194;SDS011;27023;42.680;23.132;2022-10-16T06:11:04;17.47;;;16.57;;
12194;SDS011;27023;42.680;23.132;2022-10-16T06:13:33;16.83;;;16.10;;
12194;SDS011;27023;42.680;23.132;2022-10-16T06:16:00;16.53;;;15.73;;
12194;SDS011;27023;42.680;23.132;2022-10-16T06:18:28;17.53;;;16.70;;
12194;SDS011;27023;42.680;23.132;2022-10-16T06:20:55;17.20;;;16.40;;
12194;SDS011;27023;42.680;23.132;2022-10-16T06:23:22;18.43;;;17.53;;
12194;SDS011;27023;42.680;23.132;2022-10-16T06:25:51;17.43;;;16.70;;
12194;SDS011;27023;42.680;23.132;2022-10-16T06:28:17;19.07;;;18.20;;
12194;SDS011;27023;42.680;23.132;2022-10-16T06:30:44;20.97;;;20.00;;
12194;SDS011;27023;42.680;23.132;2022-10-16T06:33:11;20.30;;;19.40;;
12194;SDS011;27023;42.680;23.132;2022-10-16T06:35:38;17.67;;;16.87;;
12194;SDS011;27023;42.680;23.132;2022-10-16T06:38:05;21.27;;;20.37;;
12194;SDS011;27023;42.680;23.132;2022-10-16T06:40:32;22.77;;;21.77;;
12194;SDS011;27023;42.680;23.132;2022-10-16T06:43:00;24.40;;;23.20;;
12194;SDS011;27023;42.680;23.132;2022-10-16T06:45:27;20.90;;;19.87;;
12194;SDS011;27023;42.680;23.132;2022-10-16T06:47:54;18.33;;;17.53;;
12194;SDS011;27023;42.680;23.132;2022-10-16T06:50:21;23.43;;;22.37;;
12194;SDS011;27023;42.680;23.132;2022-10-16T06:52:48;21.53;;;20.57;;
12194;SDS011;27023;42.680;23.132;2022-10-16T06:55:15;20.07;;;19.23;;
12194;SDS011;27023;42.680;23.132;2022-10-16T06:57:42;20.83;;;19.87;;
12194;SDS011;27023;42.680;23.132;2022-10-16T07:00:11;20.57;;;19.63;;
12194;SDS011;27023;42.680;23.132;2022-10-16T07:02:38;21.43;;;20.47;;
12194;SDS011;27023;42.680;23.132;2022-10-16T07:05:04;18.80;;;18.00;;
12194;SDS011;27023;42.680;23.132;2022-10-16T07:07:32;22.57;;;21.47;;
12194;SDS011;27023;42.680;23.132;2022-10-16T07:10:13;21.13;;;20.23;;
12194;SDS011;27023;42.680;23.132;2022-10-16T07:12:40;20.60;;;19.70;;
12194;SDS011;27023;42.680;23.132;2022-10-16T07:15:07;20.23;;;19.37;;
12194;SDS011;27023;42.680;23.132;2022-10-16T07:17:36;19.97;;;19.07;;
12194;SDS011;27023;42.680;23.132;2022-10-16T07:20:02;16.93;;;16.23;;
12194;SDS011;27023;42.680;23.132;2022-10-16T07:22:29;18.30;;;17.50;;
12194;SDS011;27023;42.680;23.132;2022-10-16T07:24:56;16.73;;;16.03;;
12194;SDS011;27023;42.680;23.132;2022-10-16T07:27:23;15.90;;;15.20;;
12194;SDS011;27023;42.680;23.132;2022-10-16T07:29:50;16.27;;;15.57;;
12194;SDS011;27023;42.680;23.132;2022-10-16T07:32:16;17.70;;;17.00;;
12194;SDS011;27023;42.680;23.132;2022-10-16T07:34:44;17.03;;;16.33;;
12194;SDS011;27023;42.680;23.132;2022-10-16T07:37:11;17.40;;;16.67;;
12194;SDS011;27023;42.680;23.132;2022-10-16T07:39:38;15.83;;;15.13;;
12194;SDS011;27023;42.680;23.132;2022-10-16T07:42:04;17.83;;;17.07;;
12194;SDS011;27023;42.680;23.132;2022-10-16T07:44:32;16.53;;;15.83;;
12194;SDS011;27023;42.680;23.132;2022-10-16T07:46:59;16.77;;;15.57;;
12194;SDS011;27023;42.680;23.132;2022-10-16T07:49:26;16.20;;;15.53;;
12194;SDS011;27023;42.680;23.132;2022-10-16T07:51:54;14.97;;;14.30;;
12194;SDS011;27023;42.680;23.132;2022-10-16T07:54:20;14.93;;;14.37;;
12194;SDS011;27023;42.680;23.132;2022-10-16T07:56:47;15.30;;;14.73;;
12194;SDS011;27023;42.680;23.132;2022-10-16T07:59:14;14.57;;;14.07;;
12194;SDS011;27023;42.680;23.132;2022-10-16T08:01:41;16.67;;;15.93;;
12194;SDS011;27023;42.680;23.132;2022-10-16T08:04:08;18.07;;;17.27;;
12194;SDS011;27023;42.680;23.132;2022-10-16T08:06:36;13.07;;;12.67;;
12194;SDS011;27023;42.680;23.132;2022-10-16T08:09:05;10.73;;;10.33;;
12194;SDS011;27023;42.680;23.132;2022-10-16T08:11:33;15.87;;;15.27;;
12194;SDS011;27023;42.680;23.132;2022-10-16T08:14:00;17.93;;;17.17;;
12194;SDS011;27023;42.680;23.132;2022-10-16T08:16:27;15.40;;;14.77;;
12194;SDS011;27023;42.680;23.132;2022-10-16T08:18:54;13.67;;;13.17;;
12194;SDS011;27023;42.680;23.132;2022-10-16T08:21:21;10.70;;;10.40;;
12194;SDS011;27023;42.680;23.132;2022-10-16T08:23:48;10.70;;;10.30;;
12194;SDS011;27023;42.680;23.132;2022-10-16T08:26:17;11.00;;;10.60;;
12194;SDS011;27023;42.680;23.132;2022-10-16T08:28:44;11.00;;;10.60;;
12194;SDS011;27023;42.680;23.132;2022-10-16T08:31:11;9.60;;;9.37;;
12194;SDS011;27023;42.680;23.132;2022-10-16T08:33:40;11.23;;;10.77;;
12194;SDS011;27023;42.680;23.132;2022-10-16T08:36:08;10.43;;;10.13;;
12194;SDS011;27023;42.680;23.132;2022-10-16T08:38:36;8.13;;;7.93;;
12194;SDS011;27023;42.680;23.132;2022-10-16T08:41:13;8.13;;;7.93;;
12194;SDS011;27023;42.680;23.132;2022-10-16T08:43:55;9.17;;;8.87;;
12194;SDS011;27023;42.680;23.132;2022-10-16T08:46:43;10.53;;;10.23;;
12194;SDS011;27023;42.680;23.132;2022-10-16T08:49:18;10.20;;;9.90;;
12194;SDS011;27023;42.680;23.132;2022-10-16T08:51:45;9.77;;;9.53;;
12194;SDS011;27023;42.680;23.132;2022-10-16T08:54:18;9.40;;;9.20;;
12194;SDS011;27023;42.680;23.132;2022-10-16T08:56:52;10.57;;;10.17;;
12194;SDS011;27023;42.680;23.132;2022-10-16T08:59:20;10.97;;;10.57;;
12194;SDS011;27023;42.680;23.132;2022-10-16T09:01:49;11.63;;;11.17;;
12194;SDS011;27023;42.680;23.132;2022-10-16T09:04:39;10.50;;;10.20;;
12194;SDS011;27023;42.680;23.132;2022-10-16T09:07:25;11.07;;;10.73;;
12194;SDS011;27023;42.680;23.132;2022-10-16T09:10:11;10.37;;;10.07;;
12194;SDS011;27023;42.680;23.132;2022-10-16T09:12:54;9.57;;;9.30;;
12194;SDS011;27023;42.680;23.132;2022-10-16T09:15:29;10.07;;;9.77;;
12194;SDS011;27023;42.680;23.132;2022-10-16T09:18:03;10.40;;;10.10;;
12194;SDS011;27023;42.680;23.132;2022-10-16T09:20:50;9.00;;;8.80;;
12194;SDS011;27023;42.680;23.132;2022-10-16T09:23:21;8.23;;;8.03;;
12194;SDS011;27023;42.680;23.132;2022-10-16T09:25:51;7.53;;;7.33;;
12194;SDS011;27023;42.680;23.132;2022-10-16T09:28:20;10.13;;;9.83;;
12194;SDS011;27023;42.680;23.132;2022-10-16T09:30:47;10.20;;;9.90;;
12194;SDS011;27023;42.680;23.132;2022-10-16T09:33:15;11.00;;;10.60;;
12194;SDS011;27023;42.680;23.132;2022-10-16T09:35:43;7.73;;;7.53;;
12194;SDS011;27023;42.680;23.132;2022-10-16T09:38:22;3.50;;;3.50;;
12194;SDS011;27023;42.680;23.132;2022-10-16T09:40:50;3.70;;;3.70;;
12194;SDS011;27023;42.680;23.132;2022-10-16T09:43:21;3.60;;;3.50;;
12194;SDS011;27023;42.680;23.132;2022-10-16T09:45:53;3.97;;;3.53;;
12194;SDS011;27023;42.680;23.132;2022-10-16T09:48:21;2.90;;;2.90;;
12194;SDS011;27023;42.680;23.132;2022-10-16T09:50:55;3.60;;;3.50;;
12194;SDS011;27023;42.680;23.132;2022-10-16T09:53:22;2.30;;;2.23;;
12194;SDS011;27023;42.680;23.132;2022-10-16T09:55:49;3.60;;;3.60;;
12194;SDS011;27023;42.680;23.132;2022-10-16T09:58:16;2.93;;;2.93;;
12194;SDS011;27023;42.680;23.132;2022-10-16T10:00:49;3.10;;;3.00;;
12194;SDS011;27023;42.680;23.132;2022-10-16T10:03:34;2.10;;;2.10;;
12194;SDS011;27023;42.680;23.132;2022-10-16T10:06:05;2.33;;;2.33;;
12194;SDS011;27023;42.680;23.132;2022-10-16T10:08:52;2.10;;;2.10;;
12194;SDS011;27023;42.680;23.132;2022-10-16T10:14:13;3.43;;;2.73;;
12194;SDS011;27023;42.680;23.132;2022-10-16T10:16:46;2.03;;;2.00;;
12194;SDS011;27023;42.680;23.132;2022-10-16T10:19:15;2.30;;;2.30;;
12194;SDS011;27023;42.680;23.132;2022-10-16T10:21:43;2.03;;;2.03;;
12194;SDS011;27023;42.680;23.132;2022-10-16T10:24:10;2.40;;;2.40;;
12194;SDS011;27023;42.680;23.132;2022-10-16T10:26:38;1.90;;;1.90;;
12194;SDS011;27023;42.680;23.132;2022-10-16T10:29:10;2.37;;;2.37;;
12194;SDS011;27023;42.680;23.132;2022-10-16T10:31:47;2.50;;;2.50;;
12194;SDS011;27023;42.680;23.132;2022-10-16T10:34:26;2.63;;;2.63;;
12194;SDS011;27023;42.680;23.132;2022-10-16T10:37:09;3.70;;;3.70;;
12194;SDS011;27023;42.680;23.132;2022-10-16T10:39:49;3.33;;;3.33;;
12194;SDS011;27023;42.680;23.132;2022-10-16T10:42:24;3.20;;;3.20;;
12194;SDS011;27023;42.680;23.132;2022-10-16T10:47:56;2.97;;;2.97;;
12194;SDS011;27023;42.680;23.132;2022-10-16T10:50:30;2.63;;;2.63;;
12194;SDS011;27023;42.680;23.132;2022-10-16T10:53:06;2.00;;;2.00;;
12194;SDS011;27023;42.680;23.132;2022-10-16T10:55:43;3.10;;;3.00;;
12194;SDS011;27023;42.680;23.132;2022-10-16T10:58:23;2.60;;;2.60;;
12194;SDS011;27023;42.680;23.132;2022-10-16T11:01:09;1.97;;;1.97;;
12194;SDS011;27023;42.680;23.132;2022-10-16T11:06:35;2.60;;;2.60;;
12194;SDS011;27023;42.680;23.132;2022-10-16T11:09:07;1.80;;;1.80;;
12194;SDS011;27023;42.680;23.132;2022-10-16T11:11:40;1.70;;;1.70;;
12194;SDS011;27023;42.680;23.132;2022-10-16T11:14:13;1.70;;;1.70;;
12194;SDS011;27023;42.680;23.132;2022-10-16T11:16:43;1.97;;;1.97;;
12194;SDS011;27023;42.680;23.132;2022-10-16T11:19:22;2.20;;;2.20;;
12194;SDS011;27023;42.680;23.132;2022-10-16T11:22:00;2.07;;;2.07;;
12194;SDS011;27023;42.680;23.132;2022-10-16T11:24:34;3.60;;;3.10;;
12194;SDS011;27023;42.680;23.132;2022-10-16T11:27:08;1.53;;;1.53;;
12194;SDS011;27023;42.680;23.132;2022-10-16T11:29:44;1.73;;;1.73;;
12194;SDS011;27023;42.680;23.132;2022-10-16T11:32:21;1.67;;;1.67;;
12194;SDS011;27023;42.680;23.132;2022-10-16T11:34:53;2.33;;;2.23;;
12194;SDS011;27023;42.680;23.132;2022-10-16T11:37:27;1.83;;;1.83;;
12194;SDS011;27023;42.680;23.132;2022-10-16T11:40:04;1.30;;;1.30;;
12194;SDS011;27023;42.680;23.132;2022-10-16T11:42:44;1.87;;;1.87;;
12194;SDS011;27023;42.680;23.132;2022-10-16T11:45:21;1.40;;;1.40;;
12194;SDS011;27023;42.680;23.132;2022-10-16T11:47:57;2.00;;;2.00;;
12194;SDS011;27023;42.680;23.132;2022-10-16T11:50:31;1.43;;;1.43;;
12194;SDS011;27023;42.680;23.132;2022-10-16T11:53:03;1.87;;;1.87;;
12194;SDS011;27023;42.680;23.132;2022-10-16T11:55:40;1.43;;;1.43;;
12194;SDS011;27023;42.680;23.132;2022-10-16T11:58:12;1.40;;;1.40;;
12194;SDS011;27023;42.680;23.132;2022-10-16T12:00:45;1.40;;;1.40;;
12194;SDS011;27023;42.680;23.132;2022-10-16T12:03:18;1.77;;;1.77;;
12194;SDS011;27023;42.680;23.132;2022-10-16T12:05:58;1.90;;;1.90;;
12194;SDS011;27023;42.680;23.132;2022-10-16T12:08:37;1.37;;;1.37;;
12194;SDS011;27023;42.680;23.132;2022-10-16T12:11:09;1.30;;;1.30;;
12194;SDS011;27023;42.680;23.132;2022-10-16T12:13:46;1.87;;;1.87;;
12194;SDS011;27023;42.680;23.132;2022-10-16T12:16:21;1.43;;;1.43;;
12194;SDS011;27023;42.680;23.132;2022-10-16T12:18:49;1.83;;;1.83;;
12194;SDS011;27023;42.680;23.132;2022-10-16T12:21:30;2.53;;;2.30;;
12194;SDS011;27023;42.680;23.132;2022-10-16T12:23:58;2.63;;;2.53;;
12194;SDS011;27023;42.680;23.132;2022-10-16T12:26:26;1.80;;;1.80;;
12194;SDS011;27023;42.680;23.132;2022-10-16T12:28:55;2.03;;;2.03;;
12194;SDS011;27023;42.680;23.132;2022-10-16T12:31:24;1.73;;;1.73;;
12194;SDS011;27023;42.680;23.132;2022-10-16T12:34:06;1.87;;;1.87;;
12194;SDS011;27023;42.680;23.132;2022-10-16T12:36:47;1.63;;;1.63;;
12194;SDS011;27023;42.680;23.132;2022-10-16T12:39:22;1.43;;;1.43;;
12194;SDS011;27023;42.680;23.132;2022-10-16T12:42:17;1.70;;;1.70;;
12194;SDS011;27023;42.680;23.132;2022-10-16T12:44:47;2.07;;;2.07;;
12194;SDS011;27023;42.680;23.132;2022-10-16T12:47:19;2.50;;;2.07;;
12194;SDS011;27023;42.680;23.132;2022-10-16T12:49:48;1.30;;;1.30;;
12194;SDS011;27023;42.680;23.132;2022-10-16T12:52:27;1.73;;;1.73;;
12194;SDS011;27023;42.680;23.132;2022-10-16T12:54:58;1.77;;;1.77;;
12194;SDS011;27023;42.680;23.132;2022-10-16T12:57:34;2.10;;;2.03;;
12194;SDS011;27023;42.680;23.132;2022-10-16T13:00:13;1.53;;;1.53;;
12194;SDS011;27023;42.680;23.132;2022-10-16T13:02:50;1.63;;;1.63;;
12194;SDS011;27023;42.680;23.132;2022-10-16T13:05:33;1.63;;;1.63;;
12194;SDS011;27023;42.680;23.132;2022-10-16T13:08:18;1.53;;;1.53;;
12194;SDS011;27023;42.680;23.132;2022-10-16T13:11:01;2.53;;;2.43;;
12194;SDS011;27023;42.680;23.132;2022-10-16T13:13:37;1.40;;;1.40;;
12194;SDS011;27023;42.680;23.132;2022-10-16T13:16:19;1.87;;;1.87;;
12194;SDS011;27023;42.680;23.132;2022-10-16T13:18:55;1.43;;;1.43;;
12194;SDS011;27023;42.680;23.132;2022-10-16T13:21:32;1.63;;;1.57;;
12194;SDS011;27023;42.680;23.132;2022-10-16T13:24:10;1.30;;;1.30;;
12194;SDS011;27023;42.680;23.132;2022-10-16T13:26:44;1.57;;;1.57;;
12194;SDS011;27023;42.680;23.132;2022-10-16T13:29:18;1.50;;;1.50;;
12194;SDS011;27023;42.680;23.132;2022-10-16T13:31:46;1.73;;;1.73;;
12194;SDS011;27023;42.680;23.132;2022-10-16T13:34:14;2.00;;;2.00;;
12194;SDS011;27023;42.680;23.132;2022-10-16T13:36:44;1.30;;;1.30;;
12194;SDS011;27023;42.680;23.132;2022-10-16T13:39:14;1.60;;;1.60;;
12194;SDS011;27023;42.680;23.132;2022-10-16T13:41:43;1.90;;;1.90;;
12194;SDS011;27023;42.680;23.132;2022-10-16T13:44:14;1.60;;;1.60;;
12194;SDS011;27023;42.680;23.132;2022-10-16T13:46:45;1.53;;;1.53;;
12194;SDS011;27023;42.680;23.132;2022-10-16T13:49:13;2.63;;;2.33;;
12194;SDS011;27023;42.680;23.132;2022-10-16T13:51:41;2.00;;;2.00;;
12194;SDS011;27023;42.680;23.132;2022-10-16T13:54:21;2.00;;;2.00;;
12194;SDS011;27023;42.680;23.132;2022-10-16T13:56:49;2.03;;;2.03;;
12194;SDS011;27023;42.680;23.132;2022-10-16T13:59:22;1.97;;;1.97;;
12194;SDS011;27023;42.680;23.132;2022-10-16T14:01:50;1.83;;;1.83;;
12194;SDS011;27023;42.680;23.132;2022-10-16T14:04:20;2.23;;;2.13;;
12194;SDS011;27023;42.680;23.132;2022-10-16T14:06:48;3.43;;;3.37;;
12194;SDS011;27023;42.680;23.132;2022-10-16T14:09:20;5.70;;;5.60;;
12194;SDS011;27023;42.680;23.132;2022-10-16T14:11:51;4.70;;;4.70;;
12194;SDS011;27023;42.680;23.132;2022-10-16T14:14:22;5.80;;;5.70;;
12194;SDS011;27023;42.680;23.132;2022-10-16T14:16:49;4.97;;;4.97;;
12194;SDS011;27023;42.680;23.132;2022-10-16T14:19:18;5.17;;;5.17;;
12194;SDS011;27023;42.680;23.132;2022-10-16T14:21:48;4.57;;;4.57;;
12194;SDS011;27023;42.680;23.132;2022-10-16T14:24:24;5.87;;;5.77;;
12194;SDS011;27023;42.680;23.132;2022-10-16T14:26:53;4.63;;;4.63;;
12194;SDS011;27023;42.680;23.132;2022-10-16T14:29:21;6.20;;;6.10;;
12194;SDS011;27023;42.680;23.132;2022-10-16T14:31:56;5.40;;;5.30;;
12194;SDS011;27023;42.680;23.132;2022-10-16T14:34:24;5.70;;;5.60;;
12194;SDS011;27023;42.680;23.132;2022-10-16T14:36:52;6.70;;;6.50;;
12194;SDS011;27023;42.680;23.132;2022-10-16T14:39:20;5.97;;;5.87;;
12194;SDS011;27023;42.680;23.132;2022-10-16T14:41:52;5.13;;;5.03;;
12194;SDS011;27023;42.680;23.132;2022-10-16T14:44:22;5.00;;;5.00;;
12194;SDS011;27023;42.680;23.132;2022-10-16T14:46:54;5.97;;;5.90;;